Terminal Aerodrome Forecast
Issued by NWS

Home | Current Version | Previous Version | Graphics & Text | Print | Product List | Glossary On
Versions: 1 2 3 4 5 6 7 8 9 10 11 12 13 14 15 16 17 18
000
FTUS43 KGRB 231200 AAA
TAFCWA
TAF AMD
KCWA 231244Z 2313/2412 07010KT 2SM -SN BR OVC006
      TEMPO 2313/2315 3/4SM -SN BR OVC003
     FM231700 06009KT 2SM -SNDZ BR OVC003
     FM232300 32003KT 3SM BR OVC005
     FM240300 32004KT 5SM BR OVC008=

USA.gov is the U.S. government's official web portal to all federal, state and local government web resources and services.